createdAt,value
2022-08-28T00:00:12.375Z,5.65
2022-08-28T00:02:13.888Z,5.75
2022-08-28T00:04:17.145Z,5.90
2022-08-28T00:06:18.887Z,5.95
2022-08-28T00:08:20.263Z,5.93
2022-08-28T00:10:22.340Z,5.82
2022-08-28T00:12:24.063Z,6.28
2022-08-28T00:14:26.194Z,6.60
2022-08-28T00:16:27.867Z,5.53
2022-08-28T00:18:29.943Z,6.88
2022-08-28T00:20:32.244Z,6.03
2022-08-28T00:22:33.921Z,5.72
2022-08-28T00:24:36.260Z,5.47
2022-08-28T00:26:56.402Z,5.90
2022-08-28T00:28:57.720Z,6.07
2022-08-28T00:31:00.209Z,6.00
2022-08-28T00:33:06.504Z,6.00
2022-08-28T00:35:08.006Z,5.68
2022-08-28T00:37:09.342Z,6.25
2022-08-28T00:39:10.630Z,5.70
2022-08-28T00:41:12.575Z,6.07
2022-08-28T00:43:45.850Z,6.15
2022-08-28T00:47:49.518Z,7.63
2022-08-28T00:49:52.912Z,6.60
2022-08-28T00:52:12.692Z,5.30
2022-08-28T00:54:14.033Z,5.60
2022-08-28T00:56:16.720Z,5.35
2022-08-28T00:58:18.219Z,5.20
2022-08-28T01:00:27.161Z,5.10
2022-08-28T01:02:28.713Z,4.95
2022-08-28T01:04:32.176Z,4.97
2022-08-28T01:06:35.601Z,5.80
2022-08-28T01:08:39.052Z,5.68
2022-08-28T01:10:42.434Z,5.00
2022-08-28T01:12:44.595Z,5.65
2022-08-28T01:14:47.338Z,5.13
2022-08-28T01:16:52.806Z,5.90
2022-08-28T01:18:54.642Z,5.70
2022-08-28T01:21:01.661Z,5.95
2022-08-28T01:23:07.039Z,5.47
2022-08-28T01:25:13.118Z,5.55
2022-08-28T01:27:14.619Z,6.57
2022-08-28T01:29:16.236Z,5.55
2022-08-28T01:31:18.761Z,5.80
2022-08-28T01:33:20.123Z,5.60
2022-08-28T01:35:31.588Z,5.65
2022-08-28T01:37:32.896Z,6.45
2022-08-28T01:39:34.290Z,6.47
2022-08-28T01:41:38.359Z,6.45
2022-08-28T01:43:40.448Z,7.03
2022-08-28T01:45:43.622Z,6.68
2022-08-28T01:47:45.584Z,7.18
2022-08-28T01:49:47.067Z,6.45
2022-08-28T01:51:48.441Z,6.05
2022-08-28T01:53:52.629Z,6.72
2022-08-28T01:55:55.786Z,6.43
2022-08-28T01:57:57.150Z,6.40
2022-08-28T01:59:58.642Z,6.55
2022-08-28T02:02:00.299Z,6.50
2022-08-28T02:04:04.227Z,6.65
2022-08-28T02:06:06.498Z,6.97
2022-08-28T02:08:07.904Z,7.20
2022-08-28T02:10:11.885Z,7.40
2022-08-28T02:12:13.247Z,6.78
2022-08-28T02:14:14.759Z,6.90
2022-08-28T02:16:16.433Z,6.55
2022-08-28T02:18:18.907Z,6.50
2022-08-28T02:20:20.502Z,6.35
2022-08-28T02:22:22.010Z,6.95
2022-08-28T02:24:23.896Z,6.63
2022-08-28T02:26:25.303Z,5.55
2022-08-28T02:28:26.719Z,6.03
2022-08-28T02:30:28.228Z,5.43
2022-08-28T02:32:29.718Z,5.60
2022-08-28T02:34:31.122Z,4.57
2022-08-28T02:36:33.642Z,5.80
2022-08-28T02:38:35.633Z,5.65
2022-08-28T02:40:37.243Z,6.05
2022-08-28T02:42:38.818Z,6.82
2022-08-28T02:44:40.277Z,5.90
2022-08-28T02:46:41.998Z,5.60
2022-08-28T02:48:43.400Z,7.28
2022-08-28T02:50:46.091Z,6.78
2022-08-28T02:52:47.547Z,6.70
2022-08-28T02:54:48.954Z,5.88
2022-08-28T02:56:50.452Z,6.25
2022-08-28T02:58:51.755Z,6.45
2022-08-28T03:00:56.869Z,6.95
2022-08-28T03:03:00.480Z,6.80
2022-08-28T03:05:01.811Z,6.57
2022-08-28T03:07:04.256Z,6.45
2022-08-28T03:09:05.772Z,5.82
2022-08-28T03:11:07.318Z,5.63
2022-08-28T03:13:08.627Z,6.10
2022-08-28T03:15:10.303Z,5.97
2022-08-28T03:17:11.729Z,6.68
2022-08-28T03:19:13.063Z,6.10
2022-08-28T03:21:14.390Z,6.03
2022-08-28T03:23:27.769Z,6.28
2022-08-28T03:25:29.590Z,6.25
2022-08-28T03:27:30.873Z,6.13
2022-08-28T03:29:32.449Z,6.90
2022-08-28T03:31:35.784Z,6.22
2022-08-28T03:33:37.297Z,5.95
2022-08-28T03:35:43.422Z,5.80
2022-08-28T03:37:44.793Z,6.20
2022-08-28T03:39:46.438Z,6.38
2022-08-28T03:41:47.741Z,5.97
2022-08-28T03:43:49.355Z,5.88
2022-08-28T03:45:53.509Z,6.32
2022-08-28T03:47:54.909Z,7.20
2022-08-28T03:49:59.406Z,6.82
2022-08-28T03:52:00.731Z,6.35
2022-08-28T03:54:02.682Z,6.68
2022-08-28T03:56:11.695Z,7.05
2022-08-28T03:58:18.970Z,6.82
2022-08-28T04:00:20.559Z,7.00
2022-08-28T04:02:22.139Z,6.95
2022-08-28T04:04:23.450Z,6.80
2022-08-28T04:06:24.788Z,7.82
2022-08-28T04:08:26.195Z,7.90
2022-08-28T04:10:27.599Z,7.22
2022-08-28T04:12:29.099Z,6.55
2022-08-28T04:14:36.087Z,7.15
2022-08-28T04:16:38.442Z,6.70
2022-08-28T04:18:41.041Z,6.20
2022-08-28T04:20:42.530Z,6.93
2022-08-28T04:22:48.305Z,6.28
2022-08-28T04:24:56.426Z,6.53
2022-08-28T04:26:57.945Z,6.63
2022-08-28T04:28:59.240Z,6.00
2022-08-28T04:31:00.533Z,6.57
2022-08-28T04:33:02.287Z,5.75
2022-08-28T04:35:04.770Z,5.10
2022-08-28T04:37:06.472Z,5.45
2022-08-28T04:39:08.644Z,4.90
2022-08-28T04:41:11.126Z,5.25
2022-08-28T04:43:12.825Z,4.47
2022-08-28T04:45:14.166Z,4.40
2022-08-28T04:47:15.667Z,4.47
2022-08-28T04:49:17.614Z,4.70
2022-08-28T04:51:20.266Z,4.72
2022-08-28T04:53:21.585Z,4.53
2022-08-28T04:55:27.867Z,4.50
2022-08-28T04:57:44.229Z,4.80
2022-08-28T04:59:45.719Z,4.60
2022-08-28T05:01:47.688Z,4.90
2022-08-28T05:03:52.689Z,4.85
2022-08-28T05:05:54.170Z,4.80
2022-08-28T05:07:55.510Z,5.40
2022-08-28T05:09:57.736Z,5.25
2022-08-28T05:12:01.784Z,5.28
2022-08-28T05:14:05.006Z,5.43
2022-08-28T05:16:06.840Z,6.78
2022-08-28T05:18:08.275Z,5.47
2022-08-28T05:20:09.921Z,5.65
2022-08-28T05:22:11.237Z,4.95
2022-08-28T05:24:13.705Z,5.90
2022-08-28T05:26:16.091Z,5.15
2022-08-28T05:28:17.487Z,5.65
2022-08-28T05:30:18.852Z,5.25
2022-08-28T05:32:20.630Z,5.38
2022-08-28T05:34:21.982Z,4.78
2022-08-28T05:36:25.774Z,5.53
2022-08-28T05:38:27.868Z,6.03
2022-08-28T05:40:29.233Z,5.57
2022-08-28T05:42:31.897Z,5.03
2022-08-28T05:44:35.212Z,5.00
2022-08-28T05:46:37.648Z,5.97
2022-08-28T05:48:39.681Z,5.15
2022-08-28T05:50:44.492Z,4.43
2022-08-28T05:52:48.750Z,4.72
2022-08-28T05:54:50.112Z,5.07
2022-08-28T05:56:51.430Z,4.93
2022-08-28T05:58:52.730Z,5.15
2022-08-28T06:00:54.095Z,5.13
2022-08-28T06:02:55.756Z,4.70
2022-08-28T06:04:57.703Z,4.78
2022-08-28T06:06:59.080Z,5.47
2022-08-28T06:09:01.792Z,5.13
2022-08-28T06:11:03.738Z,5.07
2022-08-28T06:13:05.375Z,5.20
2022-08-28T06:15:06.843Z,5.35
2022-08-28T06:17:08.544Z,5.15
2022-08-28T06:19:11.166Z,4.60
2022-08-28T06:21:13.046Z,5.65
2022-08-28T06:23:15.940Z,5.78
2022-08-28T06:25:25.119Z,5.97
2022-08-28T06:27:26.415Z,5.97
2022-08-28T06:29:28.008Z,5.85
2022-08-28T06:31:33.263Z,6.07
2022-08-28T06:33:35.032Z,5.80
2022-08-28T06:35:44.083Z,5.68
2022-08-28T06:37:45.856Z,5.20
2022-08-28T06:39:47.198Z,5.68
2022-08-28T06:41:48.521Z,5.65
2022-08-28T06:43:49.910Z,5.47
2022-08-28T06:45:54.504Z,6.45
2022-08-28T06:47:56.078Z,8.60
2022-08-28T06:49:57.455Z,8.10
2022-08-28T06:51:59.369Z,8.18
2022-08-28T06:54:00.924Z,8.57
2022-08-28T06:56:25.616Z,9.18
2022-08-28T06:58:28.651Z,8.77
2022-08-28T07:00:29.993Z,7.00
2022-08-28T07:02:31.438Z,8.02
2022-08-28T07:04:33.699Z,6.55
2022-08-28T07:06:36.875Z,5.70
2022-08-28T07:08:38.706Z,5.43
2022-08-28T07:10:40.588Z,5.35
2022-08-28T07:12:41.946Z,5.68
2022-08-28T07:14:44.395Z,4.70
2022-08-28T07:16:45.922Z,6.68
2022-08-28T07:18:47.304Z,8.27
2022-08-28T07:20:55.322Z,5.88
2022-08-28T07:22:59.560Z,6.55
2022-08-28T07:25:01.140Z,6.70
2022-08-28T07:27:02.954Z,5.88
2022-08-28T07:29:10.422Z,6.10
2022-08-28T07:31:17.346Z,5.50
2022-08-28T07:33:18.931Z,6.57
2022-08-28T07:35:21.052Z,5.93
2022-08-28T07:37:22.419Z,10.90
2022-08-28T07:39:23.885Z,6.10
2022-08-28T07:41:29.450Z,5.68
2022-08-28T07:43:49.343Z,7.07
2022-08-28T07:45:57.791Z,5.88
2022-08-28T07:47:59.258Z,7.03
2022-08-28T07:50:01.462Z,6.22
2022-08-28T07:52:03.166Z,5.97
2022-08-28T07:54:04.897Z,6.63
2022-08-28T07:56:06.681Z,6.50
2022-08-28T07:58:08.056Z,7.75
2022-08-28T08:00:10.037Z,6.95
2022-08-28T08:02:11.370Z,7.20
2022-08-28T08:04:13.489Z,8.20
2022-08-28T08:06:16.027Z,7.72
2022-08-28T08:08:17.315Z,7.57
2022-08-28T08:10:20.558Z,7.00
2022-08-28T08:12:22.313Z,6.45
2022-08-28T08:14:23.625Z,6.90
2022-08-28T08:16:26.026Z,7.72
2022-08-28T08:18:27.516Z,7.18
2022-08-28T08:20:28.979Z,6.85
2022-08-28T08:22:30.274Z,7.72
2022-08-28T08:24:32.520Z,8.18
2022-08-28T08:26:34.038Z,8.05
2022-08-28T08:28:36.082Z,8.10
2022-08-28T08:30:37.382Z,8.10
2022-08-28T08:32:40.067Z,7.55
2022-08-28T08:34:42.601Z,8.65
2022-08-28T08:36:43.896Z,7.82
2022-08-28T08:38:45.807Z,8.02
2022-08-28T08:40:48.015Z,8.50
2022-08-28T08:42:55.422Z,7.88
2022-08-28T08:44:58.742Z,8.05
2022-08-28T08:47:07.182Z,8.00
2022-08-28T08:49:14.882Z,8.38
2022-08-28T08:51:21.079Z,9.38
2022-08-28T08:53:25.640Z,8.95
2022-08-28T08:55:28.298Z,9.77
2022-08-28T08:57:30.458Z,8.45
2022-08-28T08:59:34.937Z,7.50
2022-08-28T09:01:39.092Z,7.45
2022-08-28T09:03:40.613Z,8.30
2022-08-28T09:05:53.245Z,8.02
2022-08-28T09:07:58.889Z,7.97
2022-08-28T09:10:00.318Z,8.10
2022-08-28T09:12:04.738Z,7.70
2022-08-28T09:14:26.886Z,7.28
2022-08-28T09:16:32.308Z,6.30
2022-08-28T09:18:34.365Z,7.00
2022-08-28T09:20:35.727Z,7.20
2022-08-28T09:22:37.412Z,7.20
2022-08-28T09:24:41.179Z,7.28
2022-08-28T09:26:43.083Z,7.05
2022-08-28T09:28:50.603Z,7.20
2022-08-28T09:31:00.932Z,6.18
2022-08-28T09:33:02.279Z,6.23
2022-08-28T09:35:13.129Z,6.40
2022-08-28T09:37:27.848Z,5.95
2022-08-28T09:39:33.232Z,6.35
2022-08-28T09:42:05.367Z,6.15
2022-08-28T09:44:06.752Z,6.47
2022-08-28T09:46:16.726Z,6.80
2022-08-28T09:48:30.314Z,6.20
2022-08-28T09:50:33.443Z,6.45
2022-08-28T09:52:34.813Z,7.20
2022-08-28T09:54:39.557Z,7.47
2022-08-28T09:56:42.079Z,7.15
2022-08-28T09:58:51.703Z,6.63
2022-08-28T10:00:55.739Z,6.40
2022-08-28T10:03:08.947Z,6.13
2022-08-28T10:05:12.266Z,6.05
2022-08-28T10:07:26.972Z,5.50
2022-08-28T10:09:47.859Z,6.00
2022-08-28T10:12:12.561Z,5.13
2022-08-28T10:14:14.018Z,6.47
2022-08-28T10:16:31.891Z,6.20
2022-08-28T10:18:45.994Z,6.15
2022-08-28T10:20:47.995Z,6.68
2022-08-28T10:23:08.483Z,6.28
2022-08-28T10:25:29.031Z,6.00
2022-08-28T10:27:31.571Z,6.10
2022-08-28T10:29:51.508Z,5.85
2022-08-28T10:32:04.682Z,4.80
2022-08-28T10:34:11.028Z,5.88
2022-08-28T10:36:28.828Z,5.72
2022-08-28T10:38:41.852Z,5.70
2022-08-28T10:40:51.574Z,5.38
2022-08-28T10:43:11.599Z,6.13
2022-08-28T10:45:15.117Z,5.78
2022-08-28T10:47:17.974Z,5.03
2022-08-28T10:49:34.540Z,5.93
2022-08-28T10:51:53.939Z,5.38
2022-08-28T10:54:02.830Z,5.70
2022-08-28T10:56:10.048Z,5.38
2022-08-28T10:58:24.085Z,4.90
2022-08-28T11:00:27.765Z,5.28
2022-08-28T11:02:29.556Z,5.25
2022-08-28T11:04:31.187Z,5.47
2022-08-28T11:06:47.949Z,5.18
2022-08-28T11:08:56.966Z,5.50
2022-08-28T11:11:00.297Z,5.72
2022-08-28T11:13:02.763Z,5.70
2022-08-28T11:15:37.429Z,5.15
2022-08-28T11:17:40.818Z,5.03
2022-08-28T11:19:52.559Z,4.57
2022-08-28T11:21:56.917Z,5.40
2022-08-28T11:24:03.277Z,5.10
2022-08-28T11:26:07.818Z,5.03
2022-08-28T11:28:12.517Z,4.65
2022-08-28T11:30:16.822Z,5.38
2022-08-28T11:32:27.845Z,5.05
2022-08-28T11:34:47.467Z,4.88
2022-08-28T11:36:48.822Z,4.63
2022-08-28T11:38:55.492Z,4.18
2022-08-28T11:41:09.429Z,4.45
2022-08-28T11:43:17.084Z,4.40
2022-08-28T11:45:40.205Z,4.15
2022-08-28T11:47:45.872Z,4.60
2022-08-28T11:49:47.344Z,4.25
2022-08-28T11:52:08.943Z,3.78
2022-08-28T11:54:10.250Z,4.03
2022-08-28T11:56:31.798Z,4.45
2022-08-28T11:58:51.621Z,4.47
2022-08-28T12:01:03.439Z,4.50
2022-08-28T12:03:10.382Z,4.35
2022-08-28T12:05:14.714Z,4.80
2022-08-28T12:07:17.255Z,6.50
2022-08-28T12:09:37.626Z,7.75
2022-08-28T12:13:45.927Z,7.30
2022-08-28T12:16:02.175Z,7.25
2022-08-28T12:18:06.670Z,7.07
2022-08-28T12:20:12.071Z,7.53
2022-08-28T12:22:15.558Z,7.30
2022-08-28T12:24:23.509Z,8.68
2022-08-28T12:26:35.859Z,8.18
2022-08-28T12:28:39.651Z,8.68
2022-08-28T12:30:45.745Z,9.60
2022-08-28T12:33:02.246Z,10.13
2022-08-28T12:35:17.042Z,8.70
2022-08-28T12:37:51.066Z,8.05
2022-08-28T12:39:53.642Z,9.93
2022-08-28T12:41:55.091Z,8.95
2022-08-28T12:43:58.318Z,7.88
2022-08-28T12:46:04.030Z,8.18
2022-08-28T12:48:13.011Z,7.30
2022-08-28T12:50:20.518Z,8.15
2022-08-28T12:52:23.567Z,7.43
2022-08-28T12:54:24.996Z,8.00
2022-08-28T12:56:29.958Z,8.18
2022-08-28T12:58:33.185Z,8.13
2022-08-28T13:00:35.746Z,6.40
2022-08-28T13:02:40.958Z,6.40
2022-08-28T13:04:45.642Z,6.25
2022-08-28T13:06:47.509Z,7.57
2022-08-28T13:08:49.097Z,6.82
2022-08-28T13:10:51.228Z,6.07
2022-08-28T13:12:55.781Z,5.78
2022-08-28T13:14:58.154Z,5.43
2022-08-28T13:16:59.536Z,5.13
2022-08-28T13:19:06.764Z,4.57
2022-08-28T13:21:17.195Z,5.38
2022-08-28T13:23:30.087Z,5.07
2022-08-28T13:25:35.956Z,5.68
2022-08-28T13:27:38.493Z,5.57
2022-08-28T13:29:51.627Z,4.90
2022-08-28T13:32:00.779Z,5.63
2022-08-28T13:34:21.267Z,4.80
2022-08-28T13:36:24.743Z,4.93
2022-08-28T13:38:26.202Z,4.95
2022-08-28T13:43:06.825Z,4.90
2022-08-28T13:45:08.374Z,5.07
2022-08-28T13:47:09.668Z,5.15
2022-08-28T13:49:12.426Z,5.15
2022-08-28T13:51:20.964Z,5.22
2022-08-28T13:53:22.707Z,5.00
2022-08-28T13:55:24.283Z,6.35
2022-08-28T13:57:27.787Z,6.43
2022-08-28T13:59:29.564Z,6.10
2022-08-28T14:01:50.001Z,6.32
2022-08-28T14:03:51.413Z,5.00
2022-08-28T14:05:53.053Z,5.18
2022-08-28T14:07:55.204Z,5.68
2022-08-28T14:09:56.732Z,5.18
2022-08-28T14:11:58.555Z,4.93
2022-08-28T14:13:59.827Z,4.68
2022-08-28T14:16:03.915Z,4.93
2022-08-28T14:18:05.485Z,4.60
2022-08-28T14:20:07.426Z,4.60
2022-08-28T14:22:08.753Z,5.05
2022-08-28T14:24:10.115Z,4.82
2022-08-28T14:26:11.411Z,4.80
2022-08-28T14:28:14.226Z,5.32
2022-08-28T14:30:15.755Z,5.20
2022-08-28T14:32:17.149Z,4.60
2022-08-28T14:34:19.564Z,4.90
2022-08-28T14:36:22.905Z,4.93
2022-08-28T14:38:24.214Z,5.00
2022-08-28T14:40:26.568Z,4.70
2022-08-28T14:42:27.923Z,4.72
2022-08-28T14:44:29.310Z,5.47
2022-08-28T14:46:32.233Z,4.72
2022-08-28T14:48:34.638Z,4.30
2022-08-28T14:50:39.850Z,5.15
2022-08-28T14:52:41.176Z,4.20
2022-08-28T14:54:42.497Z,4.75
2022-08-28T14:56:44.459Z,5.25
2022-08-28T14:58:45.880Z,4.40
2022-08-28T15:00:49.469Z,4.63
2022-08-28T15:02:53.337Z,4.90
2022-08-28T15:05:01.344Z,4.72
2022-08-28T15:07:06.274Z,4.65
2022-08-28T15:09:07.806Z,4.10
2022-08-28T15:11:10.257Z,5.18
2022-08-28T15:13:12.643Z,4.50
2022-08-28T15:15:14.232Z,5.15
2022-08-28T15:17:15.680Z,5.15
2022-08-28T15:19:17.916Z,4.70
2022-08-28T15:21:20.745Z,4.97
2022-08-28T15:23:22.334Z,4.95
2022-08-28T15:25:23.712Z,5.30
2022-08-28T15:27:25.063Z,5.60
2022-08-28T15:29:27.215Z,5.05
2022-08-28T15:31:32.149Z,4.80
2022-08-28T15:33:33.664Z,5.10
2022-08-28T15:35:36.993Z,5.20
2022-08-28T15:37:38.304Z,4.80
2022-08-28T15:39:58.263Z,4.90
2022-08-28T15:42:00.605Z,5.03
2022-08-28T15:44:02.161Z,5.07
2022-08-28T15:46:12.477Z,4.57
2022-08-28T15:48:13.867Z,4.93
2022-08-28T15:50:16.379Z,4.70
2022-08-28T15:52:21.174Z,4.85
2022-08-28T15:54:23.118Z,4.32
2022-08-28T15:56:24.911Z,4.82
2022-08-28T15:58:26.290Z,4.55
2022-08-28T16:00:27.640Z,4.80
2022-08-28T16:02:29.064Z,5.00
2022-08-28T16:04:30.409Z,5.00
2022-08-28T16:06:32.129Z,5.18
2022-08-28T16:08:33.901Z,4.68
2022-08-28T16:10:35.381Z,5.20
2022-08-28T16:12:40.045Z,5.45
2022-08-28T16:14:41.406Z,4.80
2022-08-28T16:16:46.455Z,5.70
2022-08-28T16:18:50.852Z,6.18
2022-08-28T16:20:52.352Z,6.03
2022-08-28T16:22:53.888Z,6.22
2022-08-28T16:24:55.216Z,6.07
2022-08-28T16:26:56.891Z,5.68
2022-08-28T16:28:58.329Z,6.00
2022-08-28T16:31:04.728Z,5.75
2022-08-28T16:33:08.895Z,6.32
2022-08-28T16:35:11.634Z,5.82
2022-08-28T16:37:13.207Z,5.63
2022-08-28T16:39:18.027Z,5.70
2022-08-28T16:41:20.582Z,5.47
2022-08-28T16:43:22.099Z,5.50
2022-08-28T16:45:23.525Z,5.85
2022-08-28T16:47:24.971Z,5.20
2022-08-28T16:49:26.944Z,5.60
2022-08-28T16:51:29.521Z,5.38
2022-08-28T16:53:31.167Z,5.55
2022-08-28T16:55:32.986Z,5.57
2022-08-28T16:57:34.680Z,6.05
2022-08-28T16:59:36.214Z,5.97
2022-08-28T17:01:40.950Z,6.57
2022-08-28T17:03:44.253Z,5.57
2022-08-28T17:05:45.703Z,5.90
2022-08-28T17:07:47.634Z,5.18
2022-08-28T17:09:49.000Z,6.03
2022-08-28T17:11:51.547Z,5.80
2022-08-28T17:13:53.812Z,6.00
2022-08-28T17:15:55.942Z,5.32
2022-08-28T17:17:57.800Z,5.80
2022-08-28T17:19:59.312Z,5.32
2022-08-28T17:22:19.125Z,5.40
2022-08-28T17:24:21.642Z,6.07
2022-08-28T17:26:23.931Z,5.90
2022-08-28T17:28:25.246Z,5.35
2022-08-28T17:30:26.912Z,5.65
2022-08-28T17:32:28.464Z,5.47
2022-08-28T17:34:30.537Z,5.72
2022-08-28T17:36:34.348Z,5.28
2022-08-28T17:38:35.894Z,5.03
2022-08-28T17:40:37.238Z,5.63
2022-08-28T17:42:38.992Z,5.60
2022-08-28T17:44:42.688Z,6.03
2022-08-28T17:46:44.088Z,5.53
2022-08-28T17:48:49.457Z,5.38
2022-08-28T17:50:57.082Z,5.45
2022-08-28T17:52:58.673Z,5.32
2022-08-28T17:55:00.583Z,5.80
2022-08-28T17:57:02.571Z,5.70
2022-08-28T17:59:04.707Z,5.65
2022-08-28T18:01:06.354Z,5.85
2022-08-28T18:03:07.904Z,5.57
2022-08-28T18:05:10.946Z,6.32
2022-08-28T18:07:12.270Z,5.80
2022-08-28T18:09:14.050Z,5.93
2022-08-28T18:11:15.348Z,5.50
2022-08-28T18:13:16.915Z,5.90
2022-08-28T18:15:18.354Z,5.97
2022-08-28T18:17:19.812Z,6.00
2022-08-28T18:19:21.329Z,6.55
2022-08-28T18:21:23.421Z,5.22
2022-08-28T18:23:25.268Z,5.38
2022-08-28T18:25:42.223Z,5.43
2022-08-28T18:27:47.988Z,6.25
2022-08-28T18:29:49.591Z,7.45
2022-08-28T18:31:51.082Z,7.75
2022-08-28T18:33:54.195Z,8.13
2022-08-28T18:35:55.604Z,9.63
2022-08-28T18:37:57.672Z,6.72
2022-08-28T18:39:59.030Z,7.00
2022-08-28T18:42:03.509Z,7.38
2022-08-28T18:44:05.021Z,6.57
2022-08-28T18:46:09.128Z,6.60
2022-08-28T18:48:10.653Z,7.45
2022-08-28T18:50:12.271Z,6.40
2022-08-28T18:52:13.671Z,6.88
2022-08-28T18:54:16.399Z,6.00
2022-08-28T18:56:18.548Z,6.03
2022-08-28T18:58:22.786Z,6.22
2022-08-28T19:00:24.811Z,6.13
2022-08-28T19:02:26.922Z,6.43
2022-08-28T19:04:28.366Z,5.95
2022-08-28T19:06:29.831Z,6.10
2022-08-28T19:08:32.707Z,5.60
2022-08-28T19:10:35.195Z,5.40
2022-08-28T19:12:37.670Z,5.07
2022-08-28T19:14:39.165Z,5.75
2022-08-28T19:16:40.643Z,5.63
2022-08-28T19:18:41.973Z,5.75
2022-08-28T19:20:43.482Z,5.70
2022-08-28T19:22:45.305Z,5.38
2022-08-28T19:24:47.078Z,5.75
2022-08-28T19:26:48.820Z,5.78
2022-08-28T19:28:50.561Z,5.95
2022-08-28T19:30:52.046Z,6.45
2022-08-28T19:32:53.421Z,6.15
2022-08-28T19:34:54.969Z,6.57
2022-08-28T19:36:56.348Z,6.60
2022-08-28T19:38:58.354Z,6.22
2022-08-28T19:40:59.911Z,6.15
2022-08-28T19:43:01.483Z,6.10
2022-08-28T19:45:04.143Z,6.18
2022-08-28T19:47:05.588Z,6.97
2022-08-28T19:49:07.671Z,8.65
2022-08-28T19:51:17.624Z,7.35
2022-08-28T19:53:24.340Z,9.35
2022-08-28T19:55:27.005Z,11.48
2022-08-28T19:57:28.313Z,10.55
2022-08-28T19:59:29.624Z,8.68
2022-08-28T20:01:32.744Z,7.28
2022-08-28T20:03:34.270Z,6.82
2022-08-28T20:05:38.323Z,6.47
2022-08-28T20:07:39.913Z,6.93
2022-08-28T20:09:41.228Z,7.80
2022-08-28T20:11:44.854Z,9.27
2022-08-28T20:13:46.188Z,12.35
2022-08-28T20:15:50.482Z,7.60
2022-08-28T20:17:51.865Z,11.20
2022-08-28T20:19:53.785Z,14.90
2022-08-28T20:21:55.730Z,10.65
2022-08-28T20:23:57.048Z,18.70
2022-08-28T20:25:58.392Z,22.98
2022-08-28T20:28:11.844Z,18.40
2022-08-28T20:30:13.316Z,15.93
2022-08-28T20:32:14.686Z,25.67
2022-08-28T20:34:17.243Z,138.13
2022-08-28T20:36:21.063Z,64.50
2022-08-28T20:38:22.744Z,84.53
2022-08-28T20:40:24.290Z,30.48
2022-08-28T20:42:25.720Z,24.88
2022-08-28T20:44:33.002Z,25.38
2022-08-28T20:46:39.850Z,30.75
2022-08-28T20:48:42.631Z,19.00
2022-08-28T20:50:44.043Z,21.75
2022-08-28T20:52:45.581Z,24.20
2022-08-28T20:54:47.252Z,11.88
2022-08-28T20:56:50.776Z,13.07
2022-08-28T20:58:52.262Z,12.68
2022-08-28T21:00:55.048Z,14.15
2022-08-28T21:03:01.027Z,14.32
2022-08-28T21:05:02.534Z,13.00
2022-08-28T21:07:03.954Z,26.70
2022-08-28T21:09:05.298Z,11.73
2022-08-28T21:11:06.656Z,8.48
2022-08-28T21:13:08.850Z,9.07
2022-08-28T21:15:11.090Z,8.73
2022-08-28T21:17:12.586Z,13.77
2022-08-28T21:19:18.222Z,9.35
2022-08-28T21:21:19.550Z,10.60
2022-08-28T21:23:22.701Z,8.45
2022-08-28T21:25:27.566Z,12.45
2022-08-28T21:27:29.414Z,8.80
2022-08-28T21:29:31.186Z,9.02
2022-08-28T21:31:33.168Z,9.95
2022-08-28T21:33:34.474Z,8.25
2022-08-28T21:35:35.759Z,8.32
2022-08-28T21:37:37.600Z,10.57
2022-08-28T21:39:38.916Z,9.55
2022-08-28T21:41:40.677Z,8.60
2022-08-28T21:43:43.220Z,7.70
2022-08-28T21:45:44.650Z,8.40
2022-08-28T21:47:46.032Z,7.22
2022-08-28T21:49:48.285Z,7.22
2022-08-28T21:51:50.088Z,7.30
2022-08-28T21:53:51.760Z,7.45
2022-08-28T21:55:53.863Z,7.28
2022-08-28T21:57:55.148Z,6.43
2022-08-28T21:59:56.823Z,7.15
2022-08-28T22:01:58.270Z,6.97
2022-08-28T22:03:59.675Z,6.50
2022-08-28T22:06:01.130Z,7.03
2022-08-28T22:08:02.724Z,7.70
2022-08-28T22:10:04.395Z,6.70
2022-08-28T22:12:06.488Z,6.93
2022-08-28T22:14:07.873Z,7.03
2022-08-28T22:16:09.399Z,7.03
2022-08-28T22:18:12.044Z,6.63
2022-08-28T22:20:13.360Z,7.57
2022-08-28T22:22:33.956Z,6.68
2022-08-28T22:24:36.490Z,6.65
2022-08-28T22:26:37.890Z,6.80
2022-08-28T22:28:39.223Z,6.90
2022-08-28T22:30:40.578Z,6.80
2022-08-28T22:32:42.040Z,7.25
2022-08-28T22:34:45.115Z,7.25
2022-08-28T22:36:46.521Z,7.30
2022-08-28T22:38:53.341Z,7.68
2022-08-28T22:40:55.252Z,7.80
2022-08-28T22:42:57.171Z,8.05
2022-08-28T22:44:58.470Z,6.70
2022-08-28T22:47:00.059Z,7.35
2022-08-28T22:49:01.498Z,6.97
2022-08-28T22:51:07.353Z,6.85
2022-08-28T22:53:09.169Z,6.78
2022-08-28T22:55:12.306Z,6.40
2022-08-28T22:57:14.088Z,7.78
2022-08-28T22:59:15.761Z,7.10
2022-08-28T23:01:18.894Z,7.00
2022-08-28T23:03:20.448Z,6.72
2022-08-28T23:05:22.675Z,6.45
2022-08-28T23:07:24.160Z,6.90
2022-08-28T23:09:25.640Z,6.43
2022-08-28T23:11:26.921Z,6.82
2022-08-28T23:13:28.662Z,6.07
2022-08-28T23:15:30.156Z,5.97
2022-08-28T23:17:31.643Z,6.60
2022-08-28T23:19:33.728Z,7.13
2022-08-28T23:21:35.047Z,6.53
2022-08-28T23:23:40.499Z,7.70
2022-08-28T23:25:41.840Z,7.03
2022-08-28T23:27:43.927Z,6.90
2022-08-28T23:29:45.493Z,7.45
2022-08-28T23:31:47.955Z,7.53
2022-08-28T23:33:49.342Z,7.20
2022-08-28T23:35:52.002Z,6.78
2022-08-28T23:37:53.495Z,7.05
2022-08-28T23:39:54.848Z,8.38
2022-08-28T23:41:56.172Z,9.25
2022-08-28T23:43:57.530Z,8.32
2022-08-28T23:45:59.844Z,8.15
2022-08-28T23:48:01.298Z,8.40
2022-08-28T23:50:05.158Z,8.10
2022-08-28T23:52:06.570Z,7.97
2022-08-28T23:54:08.959Z,7.47
2022-08-28T23:56:10.519Z,7.00
2022-08-28T23:58:14.202Z,6.60
